createdAt,value
2023-02-24T00:02:14.700Z,76.67
2023-02-24T00:04:45.186Z,76.25
2023-02-24T00:07:14.365Z,75.93
2023-02-24T00:09:45.118Z,75.79
2023-02-24T00:12:13.804Z,75.74
2023-02-24T00:14:55.495Z,76.01
2023-02-24T00:17:27.432Z,76.11
2023-02-24T00:19:55.755Z,76.47
2023-02-24T00:22:23.917Z,76.97
2023-02-24T00:24:54.224Z,77.62
2023-02-24T00:27:22.634Z,78.00
2023-02-24T00:29:50.371Z,78.10
2023-02-24T00:32:17.940Z,78.33
2023-02-24T00:34:47.639Z,78.80
2023-02-24T00:37:23.630Z,79.21
2023-02-24T00:39:52.287Z,79.15
2023-02-24T00:42:22.495Z,79.01
2023-02-24T00:44:49.803Z,79.19
2023-02-24T00:47:17.280Z,79.02
2023-02-24T00:49:46.527Z,78.55
2023-02-24T00:52:15.690Z,78.05
2023-02-24T00:54:48.331Z,77.88
2023-02-24T00:57:17.996Z,77.16
2023-02-24T00:59:51.610Z,76.12
2023-02-24T01:02:20.191Z,75.32
2023-02-24T01:04:50.664Z,75.07
2023-02-24T01:07:18.829Z,74.83
2023-02-24T01:09:46.354Z,74.54
2023-02-24T01:12:35.317Z,73.89
2023-02-24T01:15:09.147Z,73.50
2023-02-24T01:17:37.605Z,73.21
2023-02-24T01:20:16.744Z,73.13
2023-02-24T01:22:57.805Z,73.05
2023-02-24T01:25:27.183Z,72.72
2023-02-24T01:27:55.584Z,72.82
2023-02-24T01:30:23.345Z,72.72
2023-02-24T01:33:14.944Z,72.57
2023-02-24T01:35:42.342Z,72.67
2023-02-24T01:38:11.432Z,72.66
2023-02-24T01:40:44.763Z,72.94
2023-02-24T01:43:14.125Z,73.06
2023-02-24T01:45:43.031Z,72.99
2023-02-24T01:48:10.989Z,72.60
2023-02-24T01:50:38.700Z,72.53
2023-02-24T01:53:09.569Z,72.64
2023-02-24T01:55:43.181Z,72.64
2023-02-24T01:58:31.661Z,72.70
2023-02-24T02:01:00.038Z,73.23
2023-02-24T02:03:36.197Z,73.22
2023-02-24T02:06:10.835Z,73.26
2023-02-24T02:08:41.515Z,73.03
2023-02-24T02:11:13.189Z,73.25
2023-02-24T02:14:37.887Z,73.07
2023-02-24T02:17:25.920Z,72.94
2023-02-24T02:20:32.323Z,72.62
2023-02-24T02:23:32.005Z,72.59
2023-02-24T02:26:25.885Z,72.47
2023-02-24T02:29:10.847Z,72.41
2023-02-24T02:31:55.683Z,72.59
2023-02-24T02:34:38.537Z,72.64
2023-02-24T02:37:18.575Z,72.63
2023-02-24T02:40:23.130Z,72.78
2023-02-24T02:43:24.611Z,72.95
2023-02-24T02:46:03.556Z,73.38
2023-02-24T02:48:40.914Z,73.10
2023-02-24T02:51:13.038Z,72.87
2023-02-24T02:53:49.094Z,72.69
2023-02-24T02:56:19.629Z,72.50
2023-02-24T02:58:55.139Z,72.52
2023-02-24T03:01:25.499Z,72.33
2023-02-24T03:03:53.845Z,72.24
2023-02-24T03:06:26.550Z,72.40
2023-02-24T03:09:18.906Z,72.41
2023-02-24T03:11:53.103Z,72.82
2023-02-24T03:14:24.558Z,73.05
2023-02-24T03:16:53.810Z,73.51
2023-02-24T03:19:36.917Z,73.71
2023-02-24T03:22:13.384Z,73.96
2023-02-24T03:24:43.938Z,74.08
2023-02-24T03:27:25.345Z,74.46
2023-02-24T03:29:55.373Z,74.62
2023-02-24T03:32:32.749Z,74.68
2023-02-24T03:35:16.576Z,75.37
2023-02-24T03:37:49.541Z,75.54
2023-02-24T03:40:16.861Z,75.50
2023-02-24T03:42:50.347Z,75.80
2023-02-24T03:45:18.002Z,76.10
2023-02-24T03:47:46.917Z,76.23
2023-02-24T03:50:17.521Z,76.13
2023-02-24T03:53:30.453Z,76.25
2023-02-24T03:56:03.644Z,76.29
2023-02-24T03:58:59.261Z,76.55
2023-02-24T04:01:33.149Z,76.67
2023-02-24T04:04:20.488Z,76.83
2023-02-24T04:07:34.324Z,76.96
2023-02-24T04:10:32.610Z,76.77
2023-02-24T04:13:10.242Z,76.40
2023-02-24T04:15:43.408Z,76.35
2023-02-24T04:18:20.987Z,76.47
2023-02-24T04:20:52.999Z,76.46
2023-02-24T04:23:42.709Z,76.55
2023-02-24T04:26:12.947Z,76.59
2023-02-24T04:28:40.997Z,76.86
2023-02-24T04:31:12.855Z,76.73
2023-02-24T04:33:40.644Z,76.75
2023-02-24T04:36:12.509Z,76.50
2023-02-24T04:38:40.379Z,76.37
2023-02-24T04:41:08.129Z,76.27
2023-02-24T04:43:36.016Z,76.01
2023-02-24T04:46:07.625Z,75.96
2023-02-24T04:48:36.148Z,75.98
2023-02-24T04:51:06.697Z,75.60
2023-02-24T04:53:34.084Z,75.20
2023-02-24T04:56:09.267Z,75.18
2023-02-24T04:58:39.644Z,75.10
2023-02-24T05:01:11.265Z,74.98
2023-02-24T05:03:44.262Z,74.57
2023-02-24T05:06:31.873Z,74.30
2023-02-24T05:09:01.107Z,74.18
2023-02-24T05:11:34.513Z,74.10
2023-02-24T05:14:04.896Z,74.27
2023-02-24T05:16:32.700Z,74.62
2023-02-24T05:19:20.264Z,74.90
2023-02-24T05:21:48.919Z,74.83
2023-02-24T05:24:16.883Z,74.69
2023-02-24T05:26:49.557Z,74.54
2023-02-24T05:29:18.746Z,74.42
2023-02-24T05:31:46.776Z,74.19
2023-02-24T05:34:17.117Z,74.41
2023-02-24T05:36:46.233Z,74.48
2023-02-24T05:39:18.977Z,74.63
2023-02-24T05:41:48.291Z,74.44
2023-02-24T05:44:26.581Z,74.01
2023-02-24T05:46:59.129Z,73.35
2023-02-24T05:49:32.514Z,72.80
2023-02-24T05:52:01.763Z,71.92
2023-02-24T05:54:30.957Z,70.75
2023-02-24T05:57:04.759Z,69.64
2023-02-24T05:59:33.563Z,68.80
2023-02-24T06:02:07.433Z,67.27
2023-02-24T06:04:40.103Z,66.77
2023-02-24T06:07:25.332Z,66.56
2023-02-24T06:09:58.018Z,65.74
2023-02-24T06:12:30.471Z,65.04
2023-02-24T06:15:11.233Z,64.15
2023-02-24T06:17:41.757Z,63.10
2023-02-24T06:20:15.465Z,62.89
2023-02-24T06:22:46.498Z,62.31
2023-02-24T06:25:15.417Z,62.21
2023-02-24T06:27:44.893Z,61.22
2023-02-24T06:30:14.807Z,60.45
2023-02-24T06:32:46.770Z,58.86
2023-02-24T06:35:16.499Z,58.31
2023-02-24T06:37:50.566Z,57.99
2023-02-24T06:40:17.883Z,57.00
2023-02-24T06:42:49.177Z,55.81
2023-02-24T06:45:17.584Z,55.93
2023-02-24T06:47:48.320Z,54.53
2023-02-24T06:50:21.397Z,53.14
2023-02-24T06:52:49.690Z,53.11
2023-02-24T06:55:26.529Z,53.23
2023-02-24T06:57:58.321Z,52.78
2023-02-24T07:00:36.713Z,52.71
2023-02-24T07:03:16.583Z,52.52
2023-02-24T07:05:53.718Z,51.78
2023-02-24T07:08:22.462Z,51.52
2023-02-24T07:10:57.857Z,51.30
2023-02-24T07:13:25.566Z,51.31
2023-02-24T07:16:06.625Z,51.84
2023-02-24T07:18:40.977Z,52.25
2023-02-24T07:21:12.857Z,53.51
2023-02-24T07:23:41.220Z,53.16
2023-02-24T07:26:16.784Z,53.63
2023-02-24T07:28:47.647Z,53.53
2023-02-24T07:31:20.828Z,53.51
2023-02-24T07:33:49.187Z,53.21
2023-02-24T07:36:22.648Z,53.25
2023-02-24T07:38:53.734Z,53.96
2023-02-24T07:41:22.359Z,53.84
2023-02-24T07:43:53.145Z,53.13
2023-02-24T07:46:23.988Z,53.21
2023-02-24T07:48:52.035Z,53.88
2023-02-24T07:51:21.552Z,54.05
2023-02-24T07:53:53.886Z,54.56
2023-02-24T07:56:26.476Z,54.63
2023-02-24T07:58:58.887Z,54.12
2023-02-24T08:01:27.834Z,53.71
2023-02-24T08:03:56.918Z,53.46
2023-02-24T08:06:32.706Z,53.24
2023-02-24T08:09:16.261Z,52.39
2023-02-24T08:11:51.852Z,52.65
2023-02-24T08:14:52.775Z,52.61
2023-02-24T08:17:26.930Z,53.51
2023-02-24T08:20:27.003Z,53.72
2023-02-24T08:22:55.112Z,53.93
2023-02-24T08:25:37.790Z,54.20
2023-02-24T08:28:08.448Z,54.44
2023-02-24T08:30:44.472Z,54.83
2023-02-24T08:33:31.698Z,55.41
2023-02-24T08:36:02.171Z,56.01
2023-02-24T08:38:41.406Z,55.93
2023-02-24T08:41:17.342Z,54.89
2023-02-24T08:43:45.980Z,55.10
2023-02-24T08:46:19.330Z,55.70
2023-02-24T08:48:55.055Z,55.73
2023-02-24T08:51:34.283Z,56.45
2023-02-24T08:54:19.010Z,56.44
2023-02-24T08:56:56.215Z,55.43
2023-02-24T08:59:37.928Z,56.11
2023-02-24T09:02:22.798Z,56.74
2023-02-24T09:05:03.818Z,56.12
2023-02-24T09:07:40.126Z,56.23
2023-02-24T09:10:17.286Z,56.67
2023-02-24T09:13:00.721Z,55.92
2023-02-24T09:15:40.894Z,56.03
2023-02-24T09:18:09.230Z,55.71
2023-02-24T09:20:55.856Z,54.61
2023-02-24T09:23:29.600Z,54.54
2023-02-24T09:26:10.476Z,54.50
2023-02-24T09:28:48.223Z,54.69
2023-02-24T09:31:17.463Z,54.91
2023-02-24T09:33:50.502Z,55.43
2023-02-24T09:36:27.205Z,55.54
2023-02-24T09:38:59.540Z,56.07
2023-02-24T09:42:17.442Z,55.67
2023-02-24T09:44:52.345Z,54.32
2023-02-24T09:47:39.228Z,54.05
2023-02-24T09:50:51.241Z,54.17
2023-02-24T09:53:13.730Z,54.30
2023-02-24T09:55:59.997Z,53.31
2023-02-24T09:58:44.116Z,53.64
2023-02-24T10:01:21.107Z,53.54
2023-02-24T10:04:21.381Z,54.01
2023-02-24T10:07:08.254Z,53.36
2023-02-24T10:09:40.992Z,53.67
2023-02-24T10:12:17.149Z,53.95
2023-02-24T10:14:53.890Z,54.70
2023-02-24T10:17:40.513Z,54.68
2023-02-24T10:20:30.523Z,54.12
2023-02-24T10:23:29.561Z,53.91
2023-02-24T10:27:00.119Z,53.48
2023-02-24T10:29:47.003Z,53.70
2023-02-24T10:32:33.340Z,54.26
2023-02-24T10:35:01.542Z,54.00
2023-02-24T10:37:29.867Z,53.61
2023-02-24T10:39:59.320Z,54.00
2023-02-24T10:42:33.946Z,54.38
2023-02-24T10:45:34.795Z,54.63
2023-02-24T10:48:07.798Z,54.81
2023-02-24T10:50:55.413Z,54.60
2023-02-24T10:53:39.217Z,54.37
2023-02-24T10:56:41.105Z,54.41
2023-02-24T10:59:32.692Z,54.47
2023-02-24T11:02:28.921Z,54.72
2023-02-24T11:05:04.027Z,54.72
2023-02-24T11:07:53.474Z,54.29
2023-02-24T11:10:32.131Z,54.69
2023-02-24T11:13:18.840Z,55.05
2023-02-24T11:16:10.638Z,54.90
2023-02-24T11:18:58.772Z,55.30
2023-02-24T11:21:27.529Z,55.89
2023-02-24T11:23:59.257Z,55.80
2023-02-24T11:26:37.325Z,55.97
2023-02-24T11:29:38.978Z,56.21
2023-02-24T11:32:16.464Z,55.97
2023-02-24T11:35:12.655Z,56.10
2023-02-24T11:37:50.116Z,56.80
2023-02-24T11:40:24.735Z,57.17
2023-02-24T11:42:58.202Z,57.52
2023-02-24T11:45:37.576Z,58.02
2023-02-24T11:48:31.644Z,58.60
2023-02-24T11:51:12.779Z,58.56
2023-02-24T11:53:51.341Z,59.12
2023-02-24T11:56:22.674Z,59.11
2023-02-24T11:59:04.751Z,59.30
2023-02-24T12:01:40.507Z,59.57
2023-02-24T12:04:32.503Z,59.58
2023-02-24T12:07:10.900Z,60.10
2023-02-24T12:09:49.928Z,60.00
2023-02-24T12:12:21.268Z,60.09
2023-02-24T12:15:13.591Z,59.91
2023-02-24T12:18:05.269Z,60.53
2023-02-24T12:21:06.547Z,60.14
2023-02-24T12:23:37.513Z,60.30
2023-02-24T12:26:08.480Z,60.88
2023-02-24T12:29:06.868Z,61.10
2023-02-24T12:31:37.075Z,61.62
2023-02-24T12:34:20.373Z,61.72
2023-02-24T12:37:18.633Z,61.97
2023-02-24T12:39:56.296Z,62.00
2023-02-24T12:42:56.748Z,62.01
2023-02-24T12:45:53.360Z,62.06
2023-02-24T12:48:25.574Z,62.00
2023-02-24T12:51:13.080Z,62.00
2023-02-24T12:54:05.270Z,62.11
2023-02-24T12:56:59.271Z,62.32
2023-02-24T12:59:32.348Z,61.73
2023-02-24T13:02:29.356Z,62.08
2023-02-24T13:05:41.149Z,62.19
2023-02-24T13:08:56.276Z,62.12
2023-02-24T13:11:59.255Z,62.07
2023-02-24T13:14:37.224Z,62.27
2023-02-24T13:17:19.265Z,62.33
2023-02-24T13:19:48.276Z,62.55
2023-02-24T13:22:36.784Z,62.67
2023-02-24T13:25:21.245Z,62.76
2023-02-24T13:28:00.002Z,63.04
2023-02-24T13:30:40.280Z,62.89
2023-02-24T13:33:44.356Z,62.92
2023-02-24T13:36:24.332Z,62.68
2023-02-24T13:39:44.436Z,62.87
2023-02-24T13:42:30.392Z,62.61
2023-02-24T13:45:20.649Z,62.30
2023-02-24T13:48:39.284Z,62.51
2023-02-24T14:01:20.528Z,62.85
2023-02-24T14:04:24.170Z,62.77
2023-02-24T14:06:56.016Z,63.18
2023-02-24T14:09:31.517Z,63.14
2023-02-24T14:12:16.700Z,63.31
2023-02-24T14:14:50.145Z,63.47
2023-02-24T14:17:26.608Z,63.40
2023-02-24T14:20:07.918Z,63.63
2023-02-24T14:22:46.343Z,63.67
2023-02-24T14:25:16.125Z,63.68
2023-02-24T14:27:53.045Z,63.72
2023-02-24T14:30:36.383Z,63.87
2023-02-24T14:33:26.662Z,63.80
2023-02-24T14:35:58.967Z,63.56
2023-02-24T14:38:36.530Z,63.51
2023-02-24T14:45:15.665Z,63.97
2023-02-24T14:48:28.100Z,63.83
2023-02-24T14:51:04.603Z,63.77
2023-02-24T14:53:44.428Z,63.67
2023-02-24T14:56:14.004Z,63.58
2023-02-24T14:59:10.876Z,63.52
2023-02-24T15:01:50.192Z,64.09
2023-02-24T15:04:28.642Z,64.12
2023-02-24T15:06:58.329Z,64.30
2023-02-24T15:09:30.006Z,64.36
2023-02-24T15:11:58.787Z,64.07
2023-02-24T15:14:30.320Z,64.48
2023-02-24T15:17:13.363Z,64.44
2023-02-24T15:19:49.037Z,64.37
2023-02-24T15:22:59.818Z,64.59
2023-02-24T15:25:45.329Z,64.81
2023-02-24T15:28:33.837Z,65.09
2023-02-24T15:31:12.622Z,65.34
2023-02-24T15:33:54.753Z,65.33
2023-02-24T15:36:25.599Z,65.44
2023-02-24T15:39:06.460Z,65.55
2023-02-24T15:41:42.465Z,65.92
2023-02-24T15:44:32.571Z,66.04
2023-02-24T15:47:35.589Z,66.01
2023-02-24T15:50:22.989Z,65.63
2023-02-24T15:52:55.879Z,65.79
2023-02-24T15:55:28.745Z,65.48
2023-02-24T15:58:02.858Z,65.41
2023-02-24T16:00:36.125Z,65.39
2023-02-24T16:03:05.408Z,65.29
2023-02-24T16:05:38.558Z,64.86
2023-02-24T16:08:20.750Z,65.18
2023-02-24T16:11:04.297Z,64.95
2023-02-24T16:13:42.424Z,64.91
2023-02-24T16:16:19.627Z,64.97
2023-02-24T16:18:53.262Z,64.79
2023-02-24T16:21:26.194Z,64.64
2023-02-24T16:23:58.391Z,64.47
2023-02-24T16:26:33.670Z,64.55
2023-02-24T16:32:05.066Z,64.20
2023-02-24T16:34:36.105Z,63.78
2023-02-24T16:37:30.206Z,63.55
2023-02-24T16:40:13.744Z,63.52
2023-02-24T16:42:43.720Z,63.43
2023-02-24T16:45:15.514Z,62.95
2023-02-24T16:47:46.865Z,62.31
2023-02-24T16:50:28.613Z,61.91
2023-02-24T16:53:07.423Z,61.45
2023-02-24T16:55:41.229Z,61.40
2023-02-24T16:58:14.844Z,61.26
2023-02-24T17:00:48.664Z,60.93
2023-02-24T17:03:35.343Z,61.18
2023-02-24T17:06:09.118Z,60.52
2023-02-24T17:08:55.508Z,60.93
2023-02-24T17:11:25.673Z,60.80
2023-02-24T17:13:54.928Z,60.79
2023-02-24T17:16:30.304Z,60.28
2023-02-24T17:19:00.788Z,60.31
2023-02-24T17:21:31.373Z,60.18
2023-02-24T17:24:05.359Z,60.25
2023-02-24T17:26:36.221Z,60.30
2023-02-24T17:29:16.101Z,60.47
2023-02-24T17:31:45.199Z,60.57
2023-02-24T17:34:16.827Z,60.58
2023-02-24T17:36:47.553Z,60.74
2023-02-24T17:39:27.371Z,60.59
2023-02-24T17:41:56.082Z,61.05
2023-02-24T17:44:25.279Z,61.60
2023-02-24T17:46:55.911Z,62.22
2023-02-24T17:49:24.799Z,63.45
2023-02-24T17:51:54.406Z,64.29
2023-02-24T17:54:30.346Z,64.91
2023-02-24T17:57:00.313Z,65.70
2023-02-24T17:59:31.606Z,66.55
2023-02-24T18:02:05.187Z,66.34
2023-02-24T18:04:37.194Z,66.60
2023-02-24T18:07:09.470Z,66.67
2023-02-24T18:09:41.523Z,66.55
2023-02-24T18:12:15.047Z,66.41
2023-02-24T18:14:47.338Z,66.31
2023-02-24T18:17:34.216Z,66.14
2023-02-24T18:20:03.098Z,65.65
2023-02-24T18:22:32.831Z,65.74
2023-02-24T18:25:01.814Z,65.04
2023-02-24T18:27:33.570Z,64.92
2023-02-24T18:30:04.710Z,64.15
2023-02-24T18:32:35.400Z,63.76
2023-02-24T18:35:04.632Z,63.63
2023-02-24T18:37:35.366Z,63.14
2023-02-24T18:40:05.125Z,62.13
2023-02-24T18:42:35.314Z,62.03
2023-02-24T18:45:08.595Z,61.48
2023-02-24T18:47:40.365Z,60.77
2023-02-24T18:50:11.524Z,61.25
2023-02-24T18:52:41.816Z,61.58
2023-02-24T18:55:18.408Z,61.61
2023-02-24T18:58:15.165Z,61.76
2023-02-24T19:00:49.142Z,62.63
2023-02-24T19:03:25.082Z,62.83
2023-02-24T19:05:55.220Z,63.45
2023-02-24T19:08:28.099Z,63.93
2023-02-24T19:11:28.946Z,64.62
2023-02-24T19:15:05.541Z,64.99
2023-02-24T19:17:31.132Z,65.45
2023-02-24T19:20:16.326Z,65.83
2023-02-24T19:23:08.449Z,66.17
2023-02-24T19:25:53.832Z,66.43
2023-02-24T19:28:30.337Z,66.74
2023-02-24T19:31:03.733Z,66.74
2023-02-24T19:33:32.582Z,67.16
2023-02-24T19:36:02.280Z,67.05
2023-02-24T19:38:32.625Z,67.28
2023-02-24T19:41:02.512Z,67.04
2023-02-24T19:43:50.973Z,67.21
2023-02-24T19:46:26.417Z,67.26
2023-02-24T19:48:57.624Z,67.34
2023-02-24T19:51:26.964Z,67.26
2023-02-24T19:53:59.542Z,67.97
2023-02-24T19:56:31.493Z,68.20
2023-02-24T19:59:04.511Z,68.28
2023-02-24T20:01:38.931Z,68.38
2023-02-24T20:04:15.288Z,68.12
2023-02-24T20:06:47.930Z,67.98
2023-02-24T20:09:22.096Z,68.03
2023-02-24T20:11:52.188Z,68.55
2023-02-24T20:14:46.002Z,68.51
2023-02-24T20:20:00.935Z,67.86
2023-02-24T20:22:31.109Z,68.07
2023-02-24T20:25:00.772Z,67.92
2023-02-24T20:27:35.420Z,68.00
2023-02-24T20:30:08.823Z,67.54
2023-02-24T20:33:06.146Z,67.82
2023-02-24T20:35:40.188Z,67.79
2023-02-24T20:38:13.487Z,68.15
2023-02-24T20:40:42.953Z,68.32
2023-02-24T20:43:18.416Z,68.81
2023-02-24T20:45:57.783Z,68.88
2023-02-24T20:48:26.859Z,69.04
2023-02-24T20:50:57.046Z,69.62
2023-02-24T20:53:28.160Z,69.85
2023-02-24T20:56:04.182Z,69.79
2023-02-24T20:58:33.555Z,70.05
2023-02-24T21:01:10.353Z,69.96
2023-02-24T21:03:53.748Z,70.37
2023-02-24T21:06:35.652Z,70.26
2023-02-24T21:09:20.821Z,70.50
2023-02-24T21:11:52.578Z,71.00
2023-02-24T21:14:23.253Z,71.19
2023-02-24T21:16:56.816Z,71.36
2023-02-24T21:19:27.980Z,71.90
2023-02-24T21:21:57.358Z,71.97
2023-02-24T21:24:37.130Z,72.36
2023-02-24T21:27:06.870Z,72.32
2023-02-24T21:29:37.381Z,72.12
2023-02-24T21:32:06.455Z,72.49
2023-02-24T21:34:35.629Z,72.84
2023-02-24T21:37:06.409Z,72.82
2023-02-24T21:39:46.178Z,73.15
2023-02-24T21:42:17.799Z,73.09
2023-02-24T21:44:47.064Z,73.46
2023-02-24T21:47:15.845Z,73.60
2023-02-24T21:49:46.499Z,73.56
2023-02-24T21:52:16.699Z,73.95
2023-02-24T21:54:45.596Z,73.54
2023-02-24T21:57:15.429Z,73.99
2023-02-24T21:59:45.662Z,74.51
2023-02-24T22:02:17.192Z,74.58
2023-02-24T22:04:47.817Z,74.67
2023-02-24T22:07:20.187Z,75.37
2023-02-24T22:09:50.095Z,75.30
2023-02-24T22:12:20.829Z,75.46
2023-02-24T22:14:53.281Z,75.55
2023-02-24T22:17:23.319Z,75.48
2023-02-24T22:19:57.185Z,75.65
2023-02-24T22:22:27.552Z,75.86
2023-02-24T22:24:58.390Z,75.84
2023-02-24T22:27:31.578Z,76.18
2023-02-24T22:30:00.486Z,76.49
2023-02-24T22:32:31.205Z,76.79
2023-02-24T22:34:59.999Z,77.08
2023-02-24T22:37:33.894Z,76.97
2023-02-24T22:40:02.903Z,76.94
2023-02-24T22:42:34.051Z,77.74
2023-02-24T22:45:02.929Z,78.16
2023-02-24T22:47:32.429Z,78.45
2023-02-24T22:50:01.848Z,78.61
2023-02-24T22:52:31.042Z,78.55
2023-02-24T22:55:00.034Z,79.08
2023-02-24T22:57:32.923Z,79.43
2023-02-24T23:00:05.796Z,79.24
2023-02-24T23:02:34.910Z,79.60
2023-02-24T23:05:04.295Z,80.06
2023-02-24T23:07:48.855Z,80.22
2023-02-24T23:10:20.207Z,80.34
2023-02-24T23:12:55.915Z,80.31
2023-02-24T23:15:24.778Z,80.37
2023-02-24T23:17:59.357Z,80.49
2023-02-24T23:20:28.352Z,80.62
2023-02-24T23:22:57.249Z,80.78
2023-02-24T23:25:26.135Z,81.37
2023-02-24T23:27:55.126Z,81.58
2023-02-24T23:30:23.815Z,81.16
2023-02-24T23:32:52.660Z,81.52
2023-02-24T23:35:24.047Z,81.99
2023-02-24T23:37:52.837Z,82.05
2023-02-24T23:40:26.389Z,82.13
2023-02-24T23:42:55.642Z,82.13
2023-02-24T23:45:25.815Z,82.03
2023-02-24T23:47:55.366Z,82.38
2023-02-24T23:50:24.257Z,82.84
2023-02-24T23:52:53.892Z,83.15
2023-02-24T23:55:22.865Z,83.74
2023-02-24T23:57:53.703Z,84.12
